Terminal Aerodrome Forecast
Issued by NWS

Home | Current Version | Previous Version | Text Only | Print | Product List | Glossary On
Versions: 1 2 3 4 5 6 7 8 9 10 11 12 13 14 15 16 17 18 19
000
FTUS46 KEKA 282337
TAFUKI
TAF
KUKI 282337Z 2900/2924 13009KT P6SM FEW250
     FM290300 11003KT P6SM SKC
     FM291000 15003KT P6SM BKN009
     FM291800 36007KT P6SM SKC=

USA.gov is the U.S. government's official web portal to all federal, state and local government web resources and services.